createdAt,value
2018-09-11T00:00:05.130Z,75.30
2018-09-11T00:02:33.919Z,75.00
2018-09-11T00:05:02.869Z,75.70
2018-09-11T00:07:31.649Z,75.50
2018-09-11T00:10:00.433Z,75.90
2018-09-11T00:12:29.619Z,76.00
2018-09-11T00:14:58.361Z,75.80
2018-09-11T00:17:27.136Z,75.80
2018-09-11T00:19:55.975Z,76.10
2018-09-11T00:22:24.783Z,76.10
2018-09-11T00:24:53.627Z,75.70
2018-09-11T00:27:22.420Z,76.10
2018-09-11T00:29:51.222Z,76.10
2018-09-11T00:32:20.176Z,75.60
2018-09-11T00:34:48.990Z,76.10
2018-09-11T00:37:17.831Z,76.10
2018-09-11T00:39:46.614Z,76.00
2018-09-11T00:42:15.421Z,76.70
2018-09-11T00:44:44.635Z,76.70
2018-09-11T00:47:13.388Z,76.00
2018-09-11T00:49:42.151Z,76.70
2018-09-11T00:52:10.960Z,76.00
2018-09-11T00:54:39.789Z,76.40
2018-09-11T00:57:08.576Z,77.00
2018-09-11T00:59:37.325Z,77.70
2018-09-11T01:02:06.182Z,77.40
2018-09-11T01:04:34.975Z,77.70
2018-09-11T01:07:03.770Z,77.80
2018-09-11T01:09:32.524Z,77.90
2018-09-11T01:12:01.332Z,77.40
2018-09-11T01:14:30.171Z,77.60
2018-09-11T01:16:58.950Z,77.00
2018-09-11T01:19:27.730Z,77.00
2018-09-11T01:21:56.535Z,77.20
2018-09-11T01:24:25.408Z,77.40
2018-09-11T01:26:54.232Z,77.30
2018-09-11T01:29:23.037Z,77.00
2018-09-11T01:31:51.840Z,77.20
2018-09-11T01:34:20.638Z,77.80
2018-09-11T01:36:49.382Z,77.50
2018-09-11T01:39:18.223Z,77.40
2018-09-11T01:41:48.810Z,77.50
2018-09-11T01:44:17.652Z,77.40
2018-09-11T01:46:47.697Z,77.40
2018-09-11T01:49:18.510Z,78.20
2018-09-11T01:51:47.365Z,78.80
2018-09-11T01:54:16.093Z,78.20
2018-09-11T01:56:44.902Z,78.30
2018-09-11T01:59:13.700Z,78.00
2018-09-11T02:01:42.538Z,78.20
2018-09-11T02:04:11.333Z,78.40
2018-09-11T02:06:40.084Z,78.90
2018-09-11T02:09:11.132Z,78.90
2018-09-11T02:11:39.903Z,78.60
2018-09-11T02:14:08.732Z,78.20
2018-09-11T02:16:37.554Z,78.20
2018-09-11T02:19:06.383Z,77.90
2018-09-11T02:21:35.166Z,77.70
2018-09-11T02:24:03.973Z,77.40
2018-09-11T02:26:32.774Z,77.90
2018-09-11T02:29:01.584Z,78.10
2018-09-11T02:31:30.348Z,78.50
2018-09-11T02:33:59.319Z,78.80
2018-09-11T02:36:28.113Z,79.10
2018-09-11T02:38:57.069Z,79.00
2018-09-11T02:41:25.926Z,79.20
2018-09-11T02:43:54.719Z,79.50
2018-09-11T02:46:23.517Z,79.60
2018-09-11T02:48:52.310Z,79.30
2018-09-11T02:51:21.063Z,79.10
2018-09-11T02:53:49.865Z,78.70
2018-09-11T02:56:18.634Z,79.60
2018-09-11T02:58:47.393Z,79.40
2018-09-11T03:01:16.142Z,79.50
2018-09-11T03:03:45.273Z,79.50
2018-09-11T03:06:14.144Z,79.80
2018-09-11T03:08:43.080Z,79.80
2018-09-11T03:11:11.940Z,79.60
2018-09-11T03:13:40.691Z,80.40
2018-09-11T03:16:09.437Z,80.30
2018-09-11T03:18:38.250Z,80.30
2018-09-11T03:21:07.094Z,80.30
2018-09-11T03:23:36.077Z,80.70
2018-09-11T03:26:05.198Z,81.30
2018-09-11T03:28:34.200Z,81.40
2018-09-11T03:31:03.024Z,81.50
2018-09-11T03:33:32.063Z,81.70
2018-09-11T03:36:00.873Z,81.80
2018-09-11T03:38:29.649Z,82.00
2018-09-11T03:40:58.476Z,81.70
2018-09-11T03:43:27.327Z,82.50
2018-09-11T03:45:56.126Z,82.50
2018-09-11T03:48:24.930Z,82.50
2018-09-11T03:50:53.724Z,82.10
2018-09-11T03:53:22.519Z,81.60
2018-09-11T03:55:51.310Z,82.00
2018-09-11T03:58:20.189Z,81.50
2018-09-11T04:00:49.264Z,81.40
2018-09-11T04:03:18.403Z,81.30
2018-09-11T04:05:47.214Z,81.30
2018-09-11T04:08:16.289Z,81.00
2018-09-11T04:10:45.366Z,80.60
2018-09-11T04:13:14.146Z,81.20
2018-09-11T04:15:42.933Z,81.00
2018-09-11T04:18:11.750Z,81.20
2018-09-11T04:20:40.647Z,81.20
2018-09-11T04:23:09.469Z,81.10
2018-09-11T04:25:38.365Z,81.00
2018-09-11T04:28:07.884Z,81.20
2018-09-11T04:30:36.673Z,80.80
2018-09-11T04:33:07.459Z,80.60
2018-09-11T04:35:36.215Z,81.00
2018-09-11T04:38:05.481Z,80.60
2018-09-11T04:40:34.251Z,80.70
2018-09-11T04:43:03.070Z,80.60
2018-09-11T04:45:31.921Z,80.50
2018-09-11T04:48:00.704Z,80.20
2018-09-11T04:50:29.526Z,79.90
2018-09-11T04:52:58.394Z,79.90
2018-09-11T04:55:27.196Z,80.50
2018-09-11T04:57:56.466Z,80.40
2018-09-11T05:00:25.225Z,80.50
2018-09-11T05:02:54.014Z,80.70
2018-09-11T05:05:22.793Z,80.50
2018-09-11T05:07:51.658Z,79.50
2018-09-11T05:10:20.496Z,78.60
2018-09-11T05:12:49.307Z,79.20
2018-09-11T05:15:18.069Z,80.00
2018-09-11T05:17:47.298Z,79.60
2018-09-11T05:20:16.066Z,79.60
2018-09-11T05:22:44.887Z,79.60
2018-09-11T05:25:13.669Z,79.60
2018-09-11T05:27:42.443Z,79.50
2018-09-11T05:30:11.251Z,80.30
2018-09-11T05:32:40.061Z,79.70
2018-09-11T05:35:08.896Z,80.20
2018-09-11T05:37:37.670Z,81.40
2018-09-11T05:40:06.469Z,80.30
2018-09-11T05:42:35.291Z,79.30
2018-09-11T05:45:04.116Z,78.40
2018-09-11T05:47:33.699Z,78.30
2018-09-11T05:50:09.132Z,77.90
2018-09-11T05:52:38.686Z,77.90
2018-09-11T05:55:07.793Z,77.70
2018-09-11T05:57:36.582Z,77.30
2018-09-11T06:00:06.368Z,76.40
2018-09-11T06:02:35.214Z,77.20
2018-09-11T06:05:04.371Z,77.60
2018-09-11T06:07:33.140Z,77.00
2018-09-11T06:10:01.872Z,76.90
2018-09-11T06:12:30.713Z,77.00
2018-09-11T06:14:59.550Z,78.70
2018-09-11T06:17:28.314Z,78.10
2018-09-11T06:19:57.125Z,76.70
2018-09-11T06:22:25.890Z,77.90
2018-09-11T06:24:54.729Z,78.30
2018-09-11T06:27:23.514Z,78.60
2018-09-11T06:29:58.730Z,78.60
2018-09-11T06:32:27.517Z,78.50
2018-09-11T06:34:56.297Z,77.00
2018-09-11T06:37:25.068Z,76.90
2018-09-11T06:39:53.903Z,76.70
2018-09-11T06:42:22.650Z,78.00
2018-09-11T06:44:51.538Z,78.00
2018-09-11T06:47:20.244Z,78.10
2018-09-11T06:49:49.779Z,77.30
2018-09-11T06:52:18.554Z,77.20
2018-09-11T06:54:47.436Z,76.90
2018-09-11T06:57:16.249Z,77.80
2018-09-11T06:59:45.036Z,77.50
2018-09-11T07:02:13.837Z,78.10
2018-09-11T07:04:42.605Z,78.80
2018-09-11T07:07:11.397Z,78.00
2018-09-11T07:09:40.321Z,77.90
2018-09-11T07:12:09.088Z,77.00
2018-09-11T07:14:37.893Z,76.70
2018-09-11T07:17:06.669Z,75.30
2018-09-11T07:19:35.564Z,75.20
2018-09-11T07:22:04.403Z,74.00
2018-09-11T07:24:33.243Z,74.30
2018-09-11T07:27:02.052Z,73.20
2018-09-11T07:29:30.900Z,72.30
2018-09-11T07:31:59.680Z,71.10
2018-09-11T07:34:31.325Z,70.60
2018-09-11T07:37:00.134Z,70.90
2018-09-11T07:39:28.940Z,71.30
2018-09-11T07:41:57.702Z,71.90
2018-09-11T07:44:26.503Z,71.70
2018-09-11T07:46:55.300Z,71.40
2018-09-11T07:49:24.115Z,71.30
2018-09-11T07:51:52.964Z,72.40
2018-09-11T07:54:21.737Z,71.40
2018-09-11T07:56:50.524Z,71.00
2018-09-11T07:59:19.282Z,71.30
2018-09-11T08:01:48.045Z,72.30
2018-09-11T08:04:16.830Z,71.50
2018-09-11T08:06:45.645Z,71.20
2018-09-11T08:09:14.410Z,71.50
2018-09-11T08:11:43.148Z,71.20
2018-09-11T08:14:11.942Z,71.00
2018-09-11T08:16:40.694Z,71.70
2018-09-11T08:19:09.537Z,71.20
2018-09-11T08:21:38.336Z,72.00
2018-09-11T08:24:07.133Z,72.10
2018-09-11T08:26:35.927Z,72.00
2018-09-11T08:29:04.749Z,71.80
2018-09-11T08:31:33.542Z,72.00
2018-09-11T08:34:02.428Z,70.60
2018-09-11T08:36:31.272Z,70.50
2018-09-11T08:39:06.428Z,70.50
2018-09-11T08:41:35.176Z,70.30
2018-09-11T08:44:04.027Z,70.50
2018-09-11T08:46:32.888Z,70.30
2018-09-11T08:49:01.784Z,70.40
2018-09-11T08:51:30.595Z,70.20
2018-09-11T08:53:59.488Z,69.50
2018-09-11T08:56:28.282Z,68.00
2018-09-11T08:58:57.053Z,67.20
2018-09-11T09:01:25.851Z,66.50
2018-09-11T09:03:54.609Z,66.60
2018-09-11T09:06:23.423Z,66.20
2018-09-11T09:08:52.287Z,65.60
2018-09-11T09:11:21.040Z,63.90
2018-09-11T09:13:49.925Z,63.20
2018-09-11T09:16:19.031Z,62.30
2018-09-11T09:18:48.017Z,63.30
2018-09-11T09:21:16.816Z,63.70
2018-09-11T09:23:45.581Z,63.90
2018-09-11T09:26:14.433Z,62.00
2018-09-11T09:28:43.221Z,60.50
2018-09-11T09:31:12.023Z,63.10
2018-09-11T09:33:40.787Z,63.20
2018-09-11T09:36:09.637Z,61.50
2018-09-11T09:38:38.512Z,60.40
2018-09-11T09:41:07.268Z,59.60
2018-09-11T09:43:36.485Z,59.30
2018-09-11T09:46:05.274Z,59.90
2018-09-11T09:48:34.044Z,61.80
2018-09-11T09:51:02.831Z,61.20
2018-09-11T09:53:31.732Z,60.70
2018-09-11T09:56:00.610Z,59.40
2018-09-11T09:58:29.788Z,59.00
2018-09-11T10:01:03.850Z,59.60
2018-09-11T10:03:32.588Z,59.70
2018-09-11T10:06:01.321Z,59.20
2018-09-11T10:08:30.138Z,57.50
2018-09-11T10:10:58.881Z,57.90
2018-09-11T10:13:27.679Z,58.60
2018-09-11T10:15:56.514Z,58.20
2018-09-11T10:18:25.356Z,56.60
2018-09-11T10:20:54.163Z,55.60
2018-09-11T10:23:22.921Z,56.10
2018-09-11T10:25:51.743Z,55.20
2018-09-11T10:28:20.493Z,55.30
2018-09-11T10:30:49.242Z,53.50
2018-09-11T10:33:18.021Z,53.20
2018-09-11T10:35:46.825Z,54.40
2018-09-11T10:38:15.650Z,53.70
2018-09-11T10:40:44.441Z,55.20
2018-09-11T10:43:13.211Z,54.60
2018-09-11T10:45:41.978Z,55.10
2018-09-11T10:48:10.982Z,55.10
2018-09-11T10:50:39.740Z,55.40
2018-09-11T10:53:08.525Z,54.00
2018-09-11T10:55:37.338Z,54.50
2018-09-11T10:58:06.405Z,53.50
2018-09-11T11:00:35.201Z,53.50
2018-09-11T11:03:04.089Z,54.50
2018-09-11T11:05:32.876Z,55.40
2018-09-11T11:08:01.743Z,54.30
2018-09-11T11:10:30.813Z,53.80
2018-09-11T11:12:59.704Z,53.30
2018-09-11T11:15:28.448Z,53.10
2018-09-11T11:17:57.199Z,53.20
2018-09-11T11:20:26.098Z,52.50
2018-09-11T11:22:54.905Z,53.10
2018-09-11T11:25:23.670Z,52.40
2018-09-11T11:27:52.539Z,52.70
2018-09-11T11:30:21.392Z,52.40
2018-09-11T11:32:50.217Z,52.40
2018-09-11T11:35:18.953Z,52.30
2018-09-11T11:37:47.882Z,52.80
2018-09-11T11:40:16.690Z,53.90
2018-09-11T11:42:45.604Z,54.80
2018-09-11T11:45:14.399Z,53.60
2018-09-11T11:47:43.192Z,53.50
2018-09-11T11:50:11.986Z,53.30
2018-09-11T11:52:40.820Z,53.40
2018-09-11T11:55:09.947Z,52.50
2018-09-11T11:57:38.663Z,52.50
2018-09-11T12:00:07.454Z,52.50
2018-09-11T12:02:36.260Z,50.80
2018-09-11T12:05:05.139Z,50.10
2018-09-11T12:07:33.933Z,51.70
2018-09-11T12:10:02.739Z,51.20
2018-09-11T12:12:31.484Z,50.10
2018-09-11T12:15:00.242Z,49.90
2018-09-11T12:17:28.984Z,50.10
2018-09-11T12:19:58.168Z,50.30
2018-09-11T12:22:27.016Z,51.80
2018-09-11T12:24:55.816Z,52.30
2018-09-11T12:27:24.660Z,52.80
2018-09-11T12:29:53.505Z,51.50
2018-09-11T12:32:22.280Z,51.40
2018-09-11T12:34:51.077Z,51.50
2018-09-11T12:37:23.162Z,52.20
2018-09-11T12:39:54.504Z,52.00
2018-09-11T12:42:26.921Z,52.40
2018-09-11T12:45:26.343Z,52.70
2018-09-11T12:47:59.442Z,53.30
2018-09-11T12:50:31.628Z,53.90
2018-09-11T12:53:05.688Z,54.20
2018-09-11T12:55:37.100Z,54.80
2018-09-11T12:58:08.734Z,55.50
2018-09-11T13:00:42.369Z,56.30
2018-09-11T13:03:13.806Z,55.70
2018-09-11T13:05:45.455Z,55.60
2018-09-11T13:08:16.786Z,56.40
2018-09-11T13:10:48.295Z,55.00
2018-09-11T13:13:19.673Z,55.30
2018-09-11T13:15:51.228Z,55.10
2018-09-11T13:18:22.492Z,55.30
2018-09-11T13:20:53.881Z,55.20
2018-09-11T13:23:25.261Z,53.70
2018-09-11T13:25:57.041Z,54.30
2018-09-11T13:28:28.384Z,54.60
2018-09-11T13:31:00.126Z,53.70
2018-09-11T13:33:31.417Z,54.10
2018-09-11T13:36:02.641Z,55.20
2018-09-11T13:38:33.906Z,53.70
2018-09-11T13:41:05.320Z,54.30
2018-09-11T13:46:43.131Z,53.10
2018-09-11T13:49:17.509Z,53.30
2018-09-11T13:51:48.904Z,53.50
2018-09-11T13:54:39.859Z,53.20
2018-09-11T13:57:22.085Z,53.40
2018-09-11T13:59:57.523Z,53.30
2018-09-11T14:02:28.973Z,53.30
2018-09-11T14:05:00.988Z,53.80
2018-09-11T14:07:32.796Z,54.20
2018-09-11T14:10:04.338Z,54.20
2018-09-11T14:12:35.907Z,54.10
2018-09-11T14:15:07.769Z,53.80
2018-09-11T14:17:40.027Z,53.50
2018-09-11T14:20:11.147Z,54.40
2018-09-11T14:22:42.568Z,54.00
2018-09-11T14:25:13.939Z,53.50
2018-09-11T14:27:45.828Z,53.30
2018-09-11T14:30:19.276Z,53.90
2018-09-11T14:32:50.740Z,54.20
2018-09-11T14:35:22.445Z,54.00
2018-09-11T14:38:13.156Z,54.10
2018-09-11T14:41:06.880Z,54.70
2018-09-11T14:43:38.636Z,54.20
2018-09-11T14:46:10.337Z,54.70
2018-09-11T14:48:42.029Z,55.10
2018-09-11T14:51:13.621Z,54.30
2018-09-11T14:54:04.217Z,55.50
2018-09-11T14:56:37.813Z,55.80
2018-09-11T14:59:10.431Z,56.00
2018-09-11T15:01:42.441Z,55.80
2018-09-11T15:04:13.968Z,56.00
2018-09-11T15:06:46.740Z,55.60
2018-09-11T15:09:18.217Z,56.00
2018-09-11T15:11:50.197Z,56.30
2018-09-11T15:14:21.951Z,56.20
2018-09-11T15:16:55.162Z,56.70
2018-09-11T15:19:27.011Z,56.80
2018-09-11T15:21:59.838Z,56.30
2018-09-11T15:24:31.315Z,57.10
2018-09-11T15:27:04.012Z,57.00
2018-09-11T15:29:35.433Z,57.10
2018-09-11T15:32:07.268Z,57.10
2018-09-11T15:34:38.917Z,57.00
2018-09-11T15:37:10.592Z,57.00
2018-09-11T15:39:42.451Z,57.00
2018-09-11T15:42:14.037Z,57.00
2018-09-11T15:44:51.964Z,57.10
2018-09-11T15:47:28.450Z,57.80
2018-09-11T15:50:06.841Z,58.10
2018-09-11T15:52:38.225Z,58.30
2018-09-11T15:55:12.564Z,58.50
2018-09-11T15:57:46.479Z,58.70
2018-09-11T16:00:24.687Z,58.80
2018-09-11T16:03:00.150Z,58.50
2018-09-11T16:05:42.584Z,58.80
2018-09-11T16:08:23.139Z,58.70
2018-09-11T16:10:58.430Z,58.80
2018-09-11T16:13:36.955Z,59.00
2018-09-11T16:16:08.709Z,58.30
2018-09-11T16:18:40.345Z,58.40
2018-09-11T16:21:11.693Z,57.80
2018-09-11T16:23:50.360Z,58.00
2018-09-11T16:26:22.181Z,57.60
2018-09-11T16:29:04.562Z,57.60
2018-09-11T16:31:42.479Z,56.90
2018-09-11T16:34:14.551Z,56.90
2018-09-11T16:37:02.406Z,56.90
2018-09-11T16:39:31.234Z,57.20
2018-09-11T16:42:00.790Z,57.10
2018-09-11T16:44:29.569Z,57.20
2018-09-11T16:46:58.343Z,57.60
2018-09-11T16:49:29.814Z,57.40
2018-09-11T16:51:58.702Z,57.80
2018-09-11T16:54:27.495Z,57.90
2018-09-11T16:56:56.600Z,58.00
2018-09-11T16:59:25.343Z,58.30
2018-09-11T17:01:54.214Z,58.80
2018-09-11T17:04:23.064Z,58.80
2018-09-11T17:06:52.074Z,59.00
2018-09-11T17:09:21.488Z,59.10
2018-09-11T17:11:50.247Z,58.80
2018-09-11T17:14:19.013Z,59.30
2018-09-11T17:16:48.066Z,58.40
2018-09-11T17:19:17.268Z,58.50
2018-09-11T17:21:46.058Z,58.70
2018-09-11T17:24:14.874Z,59.10
2018-09-11T17:26:43.680Z,59.30
2018-09-11T17:29:12.914Z,59.00
2018-09-11T17:31:42.345Z,59.20
2018-09-11T17:34:14.478Z,59.40
2018-09-11T17:36:43.749Z,60.00
2018-09-11T17:39:13.812Z,60.10
2018-09-11T17:41:44.127Z,60.00
2018-09-11T17:44:12.919Z,60.10
2018-09-11T17:46:41.675Z,60.50
2018-09-11T17:49:10.536Z,60.50
2018-09-11T17:51:39.271Z,60.50
2018-09-11T17:54:08.142Z,60.50
2018-09-11T17:56:40.632Z,60.50
2018-09-11T17:59:10.561Z,60.50
2018-09-11T18:01:40.613Z,60.30
2018-09-11T18:04:09.420Z,60.50
2018-09-11T18:06:38.254Z,60.60
2018-09-11T18:09:07.931Z,60.80
2018-09-11T18:11:36.666Z,61.20
2018-09-11T18:14:05.632Z,61.50
2018-09-11T18:16:34.414Z,61.60
2018-09-11T18:19:03.330Z,61.50
2018-09-11T18:21:32.120Z,61.50
2018-09-11T18:24:00.917Z,61.30
2018-09-11T18:26:29.660Z,61.50
2018-09-11T18:28:58.415Z,61.30
2018-09-11T18:31:27.165Z,61.80
2018-09-11T18:33:55.952Z,61.80
2018-09-11T18:36:24.773Z,62.10
2018-09-11T18:38:53.535Z,62.00
2018-09-11T18:41:22.374Z,62.10
2018-09-11T18:43:51.390Z,62.20
2018-09-11T18:46:20.173Z,62.10
2018-09-11T18:48:48.971Z,62.30
2018-09-11T18:51:17.819Z,62.80
2018-09-11T18:53:46.636Z,62.90
2018-09-11T18:56:15.463Z,63.00
2018-09-11T18:58:45.112Z,62.80
2018-09-11T19:01:13.918Z,62.70
2018-09-11T19:03:42.791Z,62.80
2018-09-11T19:06:11.820Z,63.20
2018-09-11T19:08:41.449Z,63.00
2018-09-11T19:11:10.792Z,63.00
2018-09-11T19:13:39.792Z,63.20
2018-09-11T19:16:08.940Z,63.50
2018-09-11T19:18:38.177Z,64.30
2018-09-11T19:21:07.747Z,64.20
2018-09-11T19:23:37.068Z,64.20
2018-09-11T19:26:06.759Z,64.50
2018-09-11T19:28:36.096Z,65.40
2018-09-11T19:31:05.420Z,65.80
2018-09-11T19:33:34.314Z,66.10
2018-09-11T19:36:03.154Z,66.40
2018-09-11T19:38:31.978Z,65.70
2018-09-11T19:41:00.932Z,65.00
2018-09-11T19:43:31.658Z,65.30
2018-09-11T19:46:00.442Z,65.00
2018-09-11T19:48:29.262Z,64.80
2018-09-11T19:50:58.043Z,64.40
2018-09-11T19:53:26.844Z,64.20
2018-09-11T19:55:55.619Z,64.60
2018-09-11T19:58:24.371Z,64.20
2018-09-11T20:00:53.140Z,64.20
2018-09-11T20:03:24.917Z,64.20
2018-09-11T20:05:53.879Z,64.30
2018-09-11T20:08:28.885Z,64.30
2018-09-11T20:10:59.089Z,64.30
2018-09-11T20:13:29.506Z,64.00
2018-09-11T20:16:00.535Z,63.90
2018-09-11T20:18:29.669Z,63.50
2018-09-11T20:20:58.676Z,63.70
2018-09-11T20:23:27.483Z,63.70
2018-09-11T20:25:56.252Z,63.90
2018-09-11T20:28:25.135Z,63.70
2018-09-11T20:30:53.942Z,64.00
2018-09-11T20:33:23.048Z,64.00
2018-09-11T20:35:51.837Z,64.00
2018-09-11T20:38:21.529Z,63.90
2018-09-11T20:40:50.313Z,63.90
2018-09-11T20:43:19.053Z,63.80
2018-09-11T20:45:47.821Z,64.10
2018-09-11T20:48:16.582Z,64.60
2018-09-11T20:50:45.371Z,64.90
2018-09-11T20:53:14.141Z,65.60
2018-09-11T20:55:43.027Z,65.80
2018-09-11T20:58:11.837Z,65.30
2018-09-11T21:00:40.677Z,65.30
2018-09-11T21:03:09.457Z,65.40
2018-09-11T21:05:38.223Z,65.40
2018-09-11T21:08:07.099Z,65.40
2018-09-11T21:10:35.859Z,65.70
2018-09-11T21:13:04.774Z,65.40
2018-09-11T21:15:33.613Z,65.50
2018-09-11T21:18:02.546Z,65.30
2018-09-11T21:20:31.577Z,65.40
2018-09-11T21:23:00.335Z,65.80
2018-09-11T21:25:29.102Z,65.70
2018-09-11T21:27:57.896Z,65.70
2018-09-11T21:30:26.666Z,65.90
2018-09-11T21:32:55.433Z,66.10
2018-09-11T21:35:24.203Z,66.30
2018-09-11T21:37:53.010Z,66.50
2018-09-11T21:40:21.994Z,66.20
2018-09-11T21:42:50.729Z,66.70
2018-09-11T21:45:19.502Z,67.00
2018-09-11T21:47:48.288Z,67.10
2018-09-11T21:50:17.058Z,67.10
2018-09-11T21:52:45.857Z,67.20
2018-09-11T21:55:14.650Z,67.60
2018-09-11T21:57:43.488Z,67.50
2018-09-11T22:00:13.352Z,67.80
2018-09-11T22:02:42.132Z,68.50
2018-09-11T22:05:11.394Z,67.90
2018-09-11T22:07:40.128Z,67.70
2018-09-11T22:10:10.503Z,67.80
2018-09-11T22:12:39.301Z,67.80
2018-09-11T22:15:09.230Z,67.80
2018-09-11T22:17:38.010Z,67.80
2018-09-11T22:20:07.433Z,67.80
2018-09-11T22:22:36.249Z,67.70
2018-09-11T22:25:05.465Z,68.40
2018-09-11T22:27:34.263Z,68.50
2018-09-11T22:30:03.129Z,68.70
2018-09-11T22:32:31.882Z,68.90
2018-09-11T22:35:00.693Z,69.00
2018-09-11T22:37:29.449Z,69.40
2018-09-11T22:39:58.228Z,69.70
2018-09-11T22:42:26.978Z,69.80
2018-09-11T22:44:55.760Z,69.30
2018-09-11T22:47:24.526Z,70.00
2018-09-11T22:49:53.353Z,70.00
2018-09-11T22:52:22.114Z,70.50
2018-09-11T22:54:50.956Z,70.80
2018-09-11T22:57:19.773Z,70.90
2018-09-11T22:59:48.538Z,71.10
2018-09-11T23:02:17.306Z,71.10
2018-09-11T23:04:46.046Z,71.40
2018-09-11T23:07:14.961Z,71.30
2018-09-11T23:09:43.777Z,71.60
2018-09-11T23:12:12.559Z,72.00
2018-09-11T23:14:41.344Z,72.00
2018-09-11T23:17:10.383Z,72.20
2018-09-11T23:19:39.146Z,72.20
2018-09-11T23:22:07.916Z,72.50
2018-09-11T23:24:36.717Z,72.60
2018-09-11T23:27:05.553Z,73.10
2018-09-11T23:29:34.308Z,73.20
2018-09-11T23:32:03.065Z,73.40
2018-09-11T23:34:31.876Z,73.50
2018-09-11T23:37:00.689Z,73.10
2018-09-11T23:39:29.473Z,73.20
2018-09-11T23:41:58.233Z,73.20
2018-09-11T23:44:27.148Z,73.30
2018-09-11T23:46:55.937Z,73.10
2018-09-11T23:49:24.706Z,73.20
2018-09-11T23:51:53.532Z,73.50
2018-09-11T23:54:22.285Z,73.90
2018-09-11T23:56:51.165Z,74.50
2018-09-11T23:59:19.960Z,74.60
